Time;durP1;ratioP1;P1;durP2;ratioP2;P2;SDS_P1;SDS_P2;PMS_P1;PMS_P2;Temp;Humidity;BMP_temperature;BMP_pressure;BME280_temperature;BME280_humidity;BME280_pressure;Samples;Min_cycle;Max_cycle;Signal;HPM_P1;HPM_P2
2021/07/30 00:07:35;;;;;;;4.80;2.40;;;15.50;99.90;;;;;;20841893;28;20051;-51
2021/07/30 00:17:36;;;;;;;5.22;1.80;;;15.40;99.90;;;;;;20819441;28;20041;-48
2021/07/30 00:27:37;;;;;;;8.68;2.42;;;15.30;99.90;;;;;;20834619;28;20560;-48
2021/07/30 00:37:39;;;;;;;5.28;1.67;;;15.30;99.90;;;;;;20842928;28;20045;-48
2021/07/30 00:47:40;;;;;;;5.80;2.00;;;15.10;99.90;;;;;;20830489;28;20056;-48
2021/07/30 00:57:43;;;;;;;6.45;1.50;;;15.00;99.90;;;;;;20832719;28;20060;-48
2021/07/30 01:07:45;;;;;;;5.57;1.88;;;14.80;99.90;;;;;;20836480;28;20087;-48
2021/07/30 01:17:46;;;;;;;6.00;1.67;;;14.70;99.90;;;;;;20829245;28;20395;-49
2021/07/30 01:27:48;;;;;;;5.82;2.45;;;14.90;99.90;;;;;;20839551;28;20434;-48
2021/07/30 01:37:50;;;;;;;4.53;1.50;;;14.80;99.90;;;;;;20847865;28;20049;-48
2021/07/30 01:47:51;;;;;;;3.60;1.33;;;14.70;99.90;;;;;;20838007;28;20050;-48
2021/07/30 01:57:53;;;;;;;11.13;1.67;;;14.60;99.90;;;;;;20832536;28;20132;-48
2021/07/30 02:07:54;;;;;;;4.43;1.73;;;14.70;99.90;;;;;;20843335;28;20041;-49
2021/07/30 02:17:56;;;;;;;4.05;1.92;;;14.60;99.90;;;;;;20846038;28;20049;-48
2021/07/30 02:27:58;;;;;;;5.82;1.42;;;14.50;99.90;;;;;;20848197;28;20496;-49
2021/07/30 02:37:59;;;;;;;10.18;2.10;;;14.50;99.90;;;;;;20834249;28;20056;-48
2021/07/30 02:48:01;;;;;;;4.95;1.65;;;14.70;99.90;;;;;;20837433;28;20037;-48
2021/07/30 02:58:03;;;;;;;4.55;1.58;;;14.70;99.90;;;;;;20839472;28;20210;-48
2021/07/30 03:08:04;;;;;;;8.27;2.65;;;14.50;99.90;;;;;;20833304;28;20120;-48
2021/07/30 03:18:05;;;;;;;4.65;1.77;;;14.50;99.90;;;;;;20776651;28;20052;-48
2021/07/30 03:28:06;;;;;;;4.97;1.52;;;14.50;99.90;;;;;;20806960;28;20114;-48
2021/07/30 03:38:08;;;;;;;4.13;1.52;;;14.30;99.90;;;;;;20834025;28;20053;-48
2021/07/30 03:48:09;;;;;;;8.65;2.30;;;14.40;99.90;;;;;;20823298;28;20136;-48
2021/07/30 03:58:10;;;;;;;4.15;1.60;;;14.40;99.90;;;;;;20829590;28;20049;-48
2021/07/30 04:08:11;;;;;;;2.80;1.40;;;14.50;99.90;;;;;;20825256;28;20041;-48
2021/07/30 04:18:13;;;;;;;3.85;2.00;;;14.60;99.90;;;;;;20828243;28;20048;-48
2021/07/30 04:28:14;;;;;;;3.38;1.80;;;14.40;99.90;;;;;;20845254;28;20037;-48
2021/07/30 04:38:15;;;;;;;3.40;1.52;;;14.50;99.90;;;;;;20846443;28;20041;-48
2021/07/30 04:48:16;;;;;;;4.82;2.03;;;14.70;99.90;;;;;;20855744;28;20192;-48
2021/07/30 04:58:17;;;;;;;4.97;2.13;;;14.70;99.90;;;;;;20844795;28;20036;-48
2021/07/30 05:08:18;;;;;;;7.50;1.77;;;14.70;99.90;;;;;;20842113;28;20049;-48
2021/07/30 05:18:19;;;;;;;5.40;2.08;;;14.80;99.90;;;;;;20831346;28;20325;-48
2021/07/30 05:28:21;;;;;;;3.30;1.50;;;14.90;99.90;;;;;;20857450;28;20045;-48
2021/07/30 05:38:22;;;;;;;6.57;2.20;;;15.10;99.90;;;;;;20828972;28;20053;-48
2021/07/30 05:48:24;;;;;;;5.22;1.83;;;15.20;99.90;;;;;;20833691;28;20182;-48
2021/07/30 05:58:25;;;;;;;5.90;1.90;;;15.40;99.90;;;;;;20812080;28;20036;-48
2021/07/30 06:08:27;;;;;;;4.85;1.52;;;15.60;99.90;;;;;;20874367;28;20087;-48
2021/07/30 06:18:28;;;;;;;5.78;2.67;;;16.20;99.90;;;;;;20844795;28;20045;-49
2021/07/30 06:28:29;;;;;;;5.57;1.58;;;16.40;99.90;;;;;;20854014;28;20548;-48
2021/07/30 06:38:31;;;;;;;4.57;1.83;;;16.60;99.90;;;;;;20852780;28;20049;-49
2021/07/30 06:48:32;;;;;;;2.92;1.20;;;16.70;99.90;;;;;;20823515;28;20103;-48
2021/07/30 06:58:33;;;;;;;6.32;1.20;;;16.90;99.90;;;;;;20825632;28;20062;-49
2021/07/30 07:08:34;;;;;;;3.08;1.40;;;17.00;99.90;;;;;;20833022;28;20040;-49
2021/07/30 07:18:35;;;;;;;6.32;1.33;;;17.10;99.90;;;;;;20843258;28;20073;-48
2021/07/30 07:28:36;;;;;;;2.53;1.23;;;17.40;99.90;;;;;;20841054;28;20045;-48
2021/07/30 07:38:37;;;;;;;7.60;1.48;;;17.80;99.90;;;;;;20842770;28;20064;-49
2021/07/30 07:48:40;;;;;;;3.58;1.20;;;18.10;99.90;;;;;;20851140;28;20114;-49
2021/07/30 07:58:42;;;;;;;5.63;1.23;;;18.30;99.90;;;;;;20852500;28;20053;-49
2021/07/30 08:08:44;;;;;;;6.55;1.40;;;18.80;99.90;;;;;;20866136;28;20427;-47
2021/07/30 08:18:45;;;;;;;5.13;1.42;;;19.20;99.90;;;;;;20867775;28;20115;-47
2021/07/30 08:28:47;;;;;;;2.45;1.10;;;19.60;99.90;;;;;;20869708;28;20045;-47
2021/07/30 08:38:48;;;;;;;4.60;1.90;;;20.20;99.90;;;;;;20880858;28;20064;-47
2021/07/30 08:48:49;;;;;;;2.13;1.23;;;20.40;99.90;;;;;;20878445;28;20047;-47
2021/07/30 08:58:51;;;;;;;4.20;1.65;;;20.60;99.90;;;;;;20862556;28;20045;-47
2021/07/30 09:09:01;;;;;;;4.00;1.50;;;20.80;99.90;;;;;;20849759;28;20048;-47
2021/07/30 09:19:06;;;;;;;3.10;1.13;;;21.20;99.90;;;;;;20838328;28;20044;-47
2021/07/30 09:29:08;;;;;;;2.17;1.00;;;21.40;99.90;;;;;;20852803;28;20120;-47
2021/07/30 09:39:09;;;;;;;4.22;1.15;;;21.30;99.90;;;;;;20838087;28;20040;-47
2021/07/30 09:49:11;;;;;;;1.73;0.90;;;21.40;99.90;;;;;;20843688;28;20041;-47
2021/07/30 09:59:12;;;;;;;2.30;1.10;;;21.60;99.90;;;;;;20847947;28;20049;-47
2021/07/30 10:09:14;;;;;;;2.50;1.50;;;21.50;99.90;;;;;;20849380;28;20041;-47
2021/07/30 10:19:17;;;;;;;4.13;1.52;;;21.60;99.90;;;;;;20828034;28;20049;-47
2021/07/30 10:29:18;;;;;;;3.65;1.10;;;21.60;99.90;;;;;;20854621;28;20030;-47
2021/07/30 10:39:19;;;;;;;5.53;1.15;;;21.60;99.90;;;;;;20841841;28;20129;-47
2021/07/30 10:49:40;;;;;;;3.83;1.70;;;21.60;99.90;;;;;;20850668;28;20170;-47
2021/07/30 11:00:04;;;;;;;4.30;1.52;;;21.60;99.90;;;;;;20842684;28;20080;-47
2021/07/30 11:10:17;;;;;;;2.85;1.20;;;21.60;99.90;;;;;;20808639;28;20049;-47
2021/07/30 11:20:18;;;;;;;3.22;1.20;;;21.60;99.90;;;;;;20811372;28;20045;-47
2021/07/30 11:30:19;;;;;;;2.95;1.38;;;21.50;99.90;;;;;;20816971;28;20049;-47
2021/07/30 11:40:21;;;;;;;5.30;1.48;;;21.80;99.90;;;;;;20812521;28;20041;-48
2021/07/30 11:50:23;;;;;;;3.33;1.40;;;22.20;99.90;;;;;;20801491;28;20364;-47
2021/07/30 12:00:26;;;;;;;2.65;1.30;;;22.20;99.90;;;;;;20802376;28;20249;-47
2021/07/30 12:10:28;;;;;;;3.50;1.13;;;22.10;99.90;;;;;;20774445;28;20036;-47
2021/07/30 12:20:34;;;;;;;2.45;1.10;;;21.80;99.90;;;;;;20803702;28;20049;-47
2021/07/30 12:30:36;;;;;;;3.20;1.73;;;21.60;99.90;;;;;;20825131;28;20699;-47
2021/07/30 12:40:40;;;;;;;219.18;74.88;;;21.00;99.90;;;;;;20813592;28;21796;-47
2021/07/30 12:50:42;;;;;;;10.35;4.18;;;20.90;99.90;;;;;;20811098;28;20503;-47
2021/07/30 13:00:44;;;;;;;49.58;19.45;;;21.30;99.90;;;;;;20831599;28;21738;-47
2021/07/30 13:10:46;;;;;;;3.92;2.00;;;21.50;99.90;;;;;;20791439;28;20557;-47
2021/07/30 13:20:49;;;;;;;3.42;1.58;;;21.60;99.90;;;;;;20818255;28;20143;-47
2021/07/30 13:30:55;;;;;;;7.72;1.88;;;21.20;99.90;;;;;;20816131;28;20060;-48
2021/07/30 13:40:57;;;;;;;4.82;2.28;;;20.30;99.90;;;;;;20812321;28;20037;-47
2021/07/30 13:51:02;;;;;;;5.60;2.55;;;19.60;99.90;;;;;;20819785;28;20064;-50
2021/07/30 14:01:06;;;;;;;3.88;1.77;;;19.00;99.90;;;;;;20815771;28;20033;-50
2021/07/30 14:11:17;;;;;;;5.93;3.20;;;18.50;99.90;;;;;;20808159;28;20045;-50
2021/07/30 14:21:18;;;;;;;6.40;2.33;;;18.60;99.90;;;;;;20808686;28;20076;-48
2021/07/30 14:31:19;;;;;;;7.40;2.65;;;19.20;99.90;;;;;;20813406;28;20053;-48
2021/07/30 14:41:21;;;;;;;6.22;2.63;;;19.90;99.90;;;;;;20813335;28;20071;-48
2021/07/30 14:51:22;;;;;;;4.95;2.08;;;19.70;99.90;;;;;;20825269;28;20098;-50
2021/07/30 15:01:23;;;;;;;4.55;1.55;;;19.90;99.90;;;;;;20816558;28;20049;-48
2021/07/30 15:11:28;;;;;;;4.10;1.77;;;19.80;99.90;;;;;;20816698;28;20037;-50
2021/07/30 15:21:29;;;;;;;3.42;1.40;;;19.90;99.90;;;;;;20808607;28;20074;-50
2021/07/30 15:31:32;;;;;;;1.13;0.50;;;19.00;99.90;;;;;;20809985;28;20041;-50
2021/07/30 15:41:33;;;;;;;2.72;1.13;;;18.30;99.90;;;;;;20809300;28;20111;-51
2021/07/30 15:51:35;;;;;;;2.45;1.02;;;18.30;99.90;;;;;;20825054;28;20118;-51
2021/07/30 16:01:39;;;;;;;1.45;0.60;;;18.80;99.90;;;;;;20812548;28;20065;-48
2021/07/30 16:11:40;;;;;;;1.35;0.80;;;19.10;99.90;;;;;;20813347;28;20045;-48
2021/07/30 16:21:41;;;;;;;1.45;0.55;;;19.70;99.90;;;;;;20829378;28;20073;-48
2021/07/30 16:31:43;;;;;;;1.15;0.40;;;19.80;99.90;;;;;;20819392;28;20226;-50
2021/07/30 16:41:44;;;;;;;3.10;0.70;;;19.50;99.90;;;;;;20828196;28;21747;-48
2021/07/30 16:51:45;;;;;;;0.80;0.40;;;19.40;99.90;;;;;;20831590;28;20056;-49
2021/07/30 17:01:46;;;;;;;1.02;0.45;;;19.30;99.90;;;;;;20835019;28;20134;-49
2021/07/30 17:11:47;;;;;;;3.38;0.65;;;19.30;99.90;;;;;;20832221;28;20049;-49
2021/07/30 17:21:49;;;;;;;0.88;0.40;;;19.30;99.90;;;;;;20820480;28;20068;-49
2021/07/30 17:31:50;;;;;;;1.02;0.35;;;19.40;99.90;;;;;;20817907;28;20077;-49
2021/07/30 17:41:51;;;;;;;0.95;0.45;;;19.60;99.90;;;;;;20823935;28;20292;-48
2021/07/30 17:51:52;;;;;;;1.02;0.40;;;19.70;99.90;;;;;;20827105;28;20365;-51
2021/07/30 18:01:54;;;;;;;1.30;0.28;;;19.50;99.90;;;;;;20819755;28;20194;-51
2021/07/30 18:11:55;;;;;;;1.10;0.40;;;19.50;99.90;;;;;;20803121;28;20404;-51
2021/07/30 18:21:56;;;;;;;0.98;0.43;;;19.50;99.90;;;;;;20834816;28;20041;-50
2021/07/30 18:31:57;;;;;;;0.88;0.25;;;19.30;99.90;;;;;;20825653;28;20058;-49
2021/07/30 18:41:58;;;;;;;1.00;0.30;;;19.00;99.90;;;;;;20818712;28;20376;-50
2021/07/30 18:51:59;;;;;;;2.63;0.98;;;18.90;99.90;;;;;;20818275;28;20049;-50
2021/07/30 19:02:00;;;;;;;2.35;0.85;;;18.70;99.90;;;;;;20826957;28;20127;-50
2021/07/30 19:12:02;;;;;;;3.72;0.60;;;18.50;99.90;;;;;;20825242;28;20045;-49
2021/07/30 19:22:03;;;;;;;3.25;0.45;;;18.40;99.90;;;;;;20826663;28;20052;-49
2021/07/30 19:32:05;;;;;;;1.08;0.35;;;18.30;99.90;;;;;;20812464;28;20037;-50
2021/07/30 19:42:07;;;;;;;1.40;0.10;;;18.30;99.90;;;;;;20824640;28;20051;-49
2021/07/30 19:52:08;;;;;;;2.83;0.60;;;18.30;99.90;;;;;;20798104;28;20192;-50
2021/07/30 20:02:09;;;;;;;4.25;0.43;;;18.20;99.90;;;;;;20836588;28;20037;-49
2021/07/30 20:12:10;;;;;;;2.10;0.38;;;18.00;99.90;;;;;;20824340;28;20476;-50
2021/07/30 20:22:11;;;;;;;4.13;0.60;;;18.00;99.90;;;;;;20841642;28;20073;-49
2021/07/30 20:32:12;;;;;;;1.52;0.28;;;17.80;99.90;;;;;;20830073;28;20037;-50
2021/07/30 20:42:14;;;;;;;2.72;0.88;;;17.80;99.90;;;;;;20829694;28;20242;-49
2021/07/30 20:52:15;;;;;;;2.03;0.43;;;17.70;99.90;;;;;;20819971;28;20053;-49
2021/07/30 21:02:17;;;;;;;2.80;0.70;;;17.80;99.90;;;;;;20818707;28;20053;-50
2021/07/30 21:12:18;;;;;;;0.73;0.30;;;17.80;99.90;;;;;;20833483;28;20350;-50
2021/07/30 21:22:19;;;;;;;3.03;0.50;;;17.70;99.90;;;;;;20833746;28;20118;-49
2021/07/30 21:32:21;;;;;;;2.42;0.85;;;17.70;99.90;;;;;;20829443;28;20048;-50
2021/07/30 21:42:22;;;;;;;4.43;0.80;;;17.60;99.90;;;;;;20818144;28;20099;-49
2021/07/30 21:52:23;;;;;;;2.08;0.68;;;17.60;99.90;;;;;;20824223;28;20048;-50
2021/07/30 22:02:24;;;;;;;1.52;0.60;;;17.60;99.90;;;;;;20816260;28;20033;-50
2021/07/30 22:12:27;;;;;;;6.05;0.93;;;17.50;99.90;;;;;;20809952;28;20322;-50
2021/07/30 22:22:29;;;;;;;6.53;0.60;;;17.40;99.90;;;;;;20829414;28;20040;-50
2021/07/30 22:32:32;;;;;;;5.43;1.17;;;17.50;99.90;;;;;;20816430;28;20041;-50
2021/07/30 22:42:44;;;;;;;3.30;1.23;;;17.40;99.90;;;;;;20828627;28;20241;-50
2021/07/30 22:52:45;;;;;;;6.28;1.10;;;17.40;99.90;;;;;;20821931;28;20052;-49
2021/07/30 23:02:47;;;;;;;3.03;1.08;;;17.30;99.90;;;;;;20817528;28;20041;-49
2021/07/30 23:12:48;;;;;;;5.55;0.80;;;17.20;99.90;;;;;;20802339;28;20472;-49
2021/07/30 23:22:49;;;;;;;5.65;1.70;;;17.20;99.90;;;;;;20827023;28;20048;-49
2021/07/30 23:32:51;;;;;;;9.45;1.52;;;17.30;99.90;;;;;;20817364;28;20260;-50
2021/07/30 23:42:52;;;;;;;5.47;1.48;;;17.30;99.90;;;;;;20823569;28;20669;-50
2021/07/30 23:52:53;;;;;;;3.78;1.45;;;17.30;99.90;;;;;;20804933;28;20049;-50
